Latest Coastal Weather Observations for Lord Howe Island

IDN60701

Issued at 6:31 am EST Saturday 7 May 2016 (issued every 10 minutes, with the page automatically refreshed every 10 minutes)

About coastal observations | Map of coastal stations | Coastal observations for NSW | Marine services | Other Formats
Station Details ID: 200839 Name: LORD HOWE ISLAND AERO Lat: -31.54 Lon: 159.08 Height: 5.0 m
Data from the previous 72 hours. | See also: Recent months at Lord Howe Island
Date/Time
EST
Temp

°C
Wind Pressure Rain
since 9am
mm
Weather Cloud Vis
km
Sea
Height
m
Swell
Dir
 
Speed
knots
Gust
knots
hPa Trend Height
m
Period
s
Dir
07/06:30am 22.5 E 9 11 1020.1 - 0.0 - Partly cloudy 10 - - - -
07/06:00am 21.6 ESE 6 9 1019.9 - 0.0 - Partly cloudy 10 - - - -
07/05:30am 21.1 SE 3 5 1019.5 R 0.0 Fine Mostly clear 20 - - - -
07/05:00am 21.7 E 6 9 1019.3 - 0.0 - Partly cloudy 10 - - - -
07/04:30am 21.7 E 7 11 1018.8 - 0.0 - Partly cloudy 10 - - - -
07/04:00am 21.6 SE 4 7 1018.8 - 0.0 - Partly cloudy 10 - - - -
07/03:49am 21.6 ESE 6 10 1018.7 - 0.0 - Partly cloudy 10 - - - -
07/03:39am 22.0 E 9 13 1018.6 - 0.0 - Partly cloudy 10 - - - -
07/03:30am 22.4 E 9 12 1018.5 - 0.0 - Partly cloudy 10 - - - -
07/03:00am 22.2 ENE 9 12 1018.5 - 0.0 - - 10 - - - -
07/02:30am 22.3 ENE 9 11 1018.5 - 0.0 - Partly cloudy 10 - - - -
07/02:00am 22.3 E 9 12 1018.7 - 0.0 - Partly cloudy 10 - - - -
07/01:30am 21.9 ESE 5 7 1018.8 - 0.0 - - 10 - - - -
07/01:00am 21.5 SE 4 7 1019.0 - 0.0 - - 10 - - - -
07/12:30am 21.5 ESE 6 10 1019.2 - 0.0 - Partly cloudy 10 - - - -
07/12:00am 21.6 SE 4 7 1019.4 - 0.0 - Partly cloudy 10 - - - -
 
Date/Time
EST
Temp

°C
Wind Pressure Rain
since 9am
mm
Weather Cloud Vis
km
Sea
Height
m
Swell
Dir
 
Speed
knots
Gust
knots
hPa Trend Height
m
Period
s
Dir
06/11:30pm 21.5 SE 5 7 1019.6 - 0.0 - Mostly clear 10 - - - -
06/11:00pm 21.2 SE 6 10 1019.7 - 0.0 - Partly cloudy 10 - - - -
06/10:30pm 21.1 ESE 7 10 1019.9 - 0.0 - Partly cloudy 9 - - - -
06/10:00pm 21.3 SSE 9 12 1019.9 - 0.0 - Partly cloudy 10 - - - -
06/09:30pm 21.0 SE 8 12 1019.9 - 0.0 - Partly cloudy 10 - - - -
06/09:00pm 21.7 ESE 8 13 1019.9 - 0.0 - Partly cloudy 9 - - - -
06/08:39pm 21.3 ENE 13 19 1019.8 - 0.0 - Partly cloudy 10 - - - -
06/08:30pm 21.8 ENE 16 20 1019.8 - 0.0 - Cloudy 10 - - - -
06/08:23pm 22.0 ENE 14 18 1019.7 - 0.0 - Partly cloudy 10 - - - -
06/08:00pm 22.0 ESE 5 10 1019.7 - 0.0 - - 10 - - - -
06/07:30pm 22.2 ESE 7 12 1019.4 - 0.0 - - 10 - - - -
06/07:00pm 22.3 E 10 15 1019.1 - 0.0 - Partly cloudy 10 - - - -
06/06:30pm 22.1 ESE 5 9 1019.0 - 0.0 - Partly cloudy 10 - - - -
06/06:00pm 22.1 ESE 5 8 1018.7 - 0.0 - - 10 - - - -
06/05:30pm 22.2 SE 5 9 1018.4 - 0.0 - Mostly clear 10 - - - -
06/05:00pm 22.4 SSE 4 7 1018.1 - 0.0 - Partly cloudy 10 - - - -
06/04:30pm 22.5 ESE 5 9 1018.0 - 0.0 - Partly cloudy 10 - - - -
06/04:00pm 22.8 ESE 8 11 1017.9 - 0.0 - Partly cloudy 10 - - - -
06/03:30pm 23.7 E 9 13 1017.9 - 0.0 - Partly cloudy 10 - - - -
06/03:00pm 23.6 E 9 12 1018.0 - 0.0 - Partly cloudy 10 - - - -
06/02:30pm 24.0 E 10 13 1018.0 - 0.0 - Mostly cloudy 10 - - - -
06/02:00pm 24.0 E 8 12 1018.0 - 0.0 - Partly cloudy 10 - - - -
06/01:30pm 24.1 E 9 13 - - 0.0 - Partly cloudy 10 - - - -
06/01:00pm 23.1 E 5 9 1018.4 - 0.0 - Partly cloudy 10 - - - -
06/12:30pm 23.5 W 4 7 1018.4 - 0.0 - Partly cloudy 10 - - - -
06/12:00pm 24.8 WNW 4 7 1018.7 - 0.0 - Partly cloudy 10 - - - -
06/11:30am 23.7 NW 3 5 1019.1 - 0.0 - Cloudy 10 - - - -
06/11:00am 23.6 WSW 6 8 1019.5 - 0.0 - Partly cloudy 10 - - - -
06/10:30am 23.9 SW 5 7 1019.8 - 0.0 - Mostly clear 10 - - - -
06/10:00am 24.6 WSW 4 5 1020.1 - 0.0 - Mostly clear 10 - - - -
06/09:30am 23.9 W 4 5 1020.3 - 0.0 - Mostly clear 10 - - - -
06/09:00am 24.1 W 3 5 1020.2 - 0.0 - Mostly clear 10 - - - -
06/08:30am 24.3 NNW 3 4 1020.4 - 0.0 - Partly cloudy 10 - - - -
06/08:00am 23.4 CALM 0 0 1020.4 - 0.0 - Mostly clear 10 - - - -
06/07:30am 21.9 CALM 0 0 1020.2 - 0.0 - Partly cloudy 10 - - - -
06/07:00am 19.4 CALM 0 0 1019.9 - 0.0 - - 10 - - - -
06/06:40am 17.6 CALM 0 0 1019.7 - 0.0 - - 10 - - - -
06/06:30am 17.2 CALM 0 0 1019.6 - 0.0 - - 5 - - - -
06/06:18am 16.5 CALM 0 0 1019.4 - 0.0 - - 2 - - - -
06/06:02am 16.0 CALM 0 0 1019.2 - 0.0 - - 4 - - - -
06/06:00am 16.2 CALM 0 0 1019.2 - 0.0 - - 10 - - - -
06/05:41am 16.9 CALM 0 0 1018.9 - 0.0 - - 10 - - - -
06/05:33am 17.1 CALM 0 0 1018.8 - 0.0 - - 10 - - - -
06/05:30am 17.2 CALM 0 0 1018.8 - 0.0 - - 10 - - - -
06/05:07am 16.5 CALM 0 0 1018.5 - 0.0 - - 0.9 - - - -
06/05:00am 16.7 CALM 0 0 1018.4 - 0.0 - - 8 - - - -
06/04:30am 17.2 CALM 0 0 1018.3 - 0.0 - - 3 - - - -
06/04:13am 17.3 CALM 0 0 1018.2 - 0.0 - - 6 - - - -
06/04:00am 17.7 CALM 0 0 1018.2 - 0.0 - - 10 - - - -
06/03:30am 19.0 SE 3 5 1018.0 - 0.0 - - 10 - - - -
06/03:00am 19.6 SSE 3 4 1018.1 - 0.0 - Partly cloudy 10 - - - -
06/02:30am 18.3 SE 4 5 1018.2 - 0.0 - Mostly clear 10 - - - -
06/02:00am 17.5 CALM 0 3 1018.4 - 0.0 - Partly cloudy 10 - - - -
06/01:30am 18.0 CALM 0 0 1018.7 - 0.0 - Partly cloudy 10 - - - -
06/01:00am 17.5 CALM 0 0 1019.0 - 0.0 - - 10 - - - -
06/12:30am 18.4 CALM 0 0 1019.2 - 0.0 - - 10 - - - -
06/12:00am 18.7 CALM 0 0 1019.4 - 0.0 - Partly cloudy 10 - - - -
 
Date/Time
EST
Temp

°C
Wind Pressure Rain
since 9am
mm
Weather Cloud Vis
km
Sea
Height
m
Swell
Dir
 
Speed
knots
Gust
knots
hPa Trend Height
m
Period
s
Dir
05/11:30pm 18.0 CALM 0 0 1019.5 - 0.0 - Mostly clear 10 - - - -
05/11:00pm 18.8 CALM 0 0 1019.7 - 0.0 - Partly cloudy 10 - - - -
05/10:30pm 19.1 CALM 0 0 1020.0 - 0.0 - Partly cloudy 10 - - - -
05/10:00pm 19.4 SSE 1 3 1020.2 - 0.0 - Partly cloudy 10 - - - -
05/09:30pm 20.1 CALM 0 0 1020.2 - 0.0 - Partly cloudy 10 - - - -
05/09:00pm 20.2 SSE 3 4 1020.2 - 0.0 - Partly cloudy 10 - - - -
05/08:30pm 21.0 SE 5 6 1020.2 - 0.0 - - 10 - - - -
05/08:00pm 21.5 SE 5 6 1020.2 - 0.0 - - 10 - - - -
05/07:30pm 21.4 SE 5 6 1020.1 - 0.0 - - 10 - - - -
05/07:00pm 21.4 SE 6 7 1019.8 - 0.0 - - 10 - - - -
05/06:30pm 21.2 SE 5 7 1019.7 - 0.0 - Partly cloudy 10 - - - -
05/06:00pm 21.2 ESE 5 8 1019.4 - 0.0 - - 10 - - - -
05/05:30pm 21.2 ESE 5 7 1019.1 - 0.0 - - 10 - - - -
05/05:00pm 21.2 ESE 6 8 1018.9 - 0.0 - - 10 - - - -
05/04:30pm 21.6 ESE 8 11 1018.7 - 0.0 - Mostly clear 10 - - - -
05/04:00pm 22.2 E 10 14 1018.5 - 0.0 - Mostly clear 10 - - - -
05/03:30pm 22.6 E 10 15 1018.6 - 0.0 - Mostly clear 10 - - - -
05/03:00pm 22.9 E 11 16 1018.5 - 0.0 - Mostly clear 10 - - - -
05/02:30pm 23.2 E 11 16 1018.4 - 0.0 - Mostly clear 10 - - - -
05/02:00pm 23.5 E 8 13 1018.4 - 0.0 - Mostly clear 10 - - - -
05/01:30pm 24.0 E 8 13 1018.4 - 0.0 - Mostly clear 10 - - - -
05/01:00pm 24.3 W 3 5 1018.6 - 0.0 - Mostly clear 10 - - - -
05/12:30pm 23.9 W 4 8 1018.9 - 0.0 - Mostly clear 10 - - - -
05/12:00pm 24.1 WSW 5 8 1019.1 - 0.0 - Partly cloudy 10 - - - -
05/11:30am 24.0 WSW 4 13 1019.6 - 0.0 - Partly cloudy 10 - - - -
05/11:00am 24.1 E 8 15 1019.8 - 0.0 - Mostly clear 10 - - - -
05/10:30am 23.9 E 9 13 1020.2 - 0.0 - Mostly clear 10 - - - -
05/10:00am 23.6 E 10 13 1020.5 - 0.0 - Mostly clear 10 - - - -
05/09:30am 24.1 NW 5 7 1020.6 - 0.0 - Mostly clear 10 - - - -
05/09:00am 23.6 SSW 5 13 1020.6 - 0.0 - Mostly clear 10 - - - -
05/08:30am 23.1 E 10 14 1020.4 - 0.2 - Mostly clear 10 - - - -
05/08:00am 22.7 SE 6 10 1020.2 - 0.2 - Mostly clear 10 - - - -
05/07:30am 22.4 E 7 11 1020.1 - 0.2 - Mostly clear 10 - - - -
05/07:00am 21.8 SSE 3 7 1019.8 - 0.2 - - 10 - - - -
05/06:30am 21.5 SE 5 7 1019.5 - 0.2 - - 10 - - - -
05/06:00am 21.2 SE 6 10 1019.3 - 0.2 - Partly cloudy 10 - - - -
05/05:30am 20.9 SE 5 6 1019.0 - 0.2 - Partly cloudy 10 - - - -
05/05:00am 20.9 SE 5 6 1018.8 - 0.2 - Partly cloudy 10 - - - -
05/04:30am 20.4 SE 5 5 1018.6 - 0.2 - Partly cloudy 10 - - - -
05/04:00am 19.3 SE 4 7 1018.3 - 0.2 - Partly cloudy 10 - - - -
05/03:30am 17.0 SE 5 6 1018.1 - 0.2 - - 10 - - - -
05/03:00am 16.8 S 2 4 1018.0 - 0.2 - - 10 - - - -
05/02:30am 16.8 CALM 0 0 1017.9 - 0.2 - - 10 - - - -
05/02:10am 16.3 CALM 0 0 1017.9 - 0.2 - - 4 - - - -
05/02:00am 16.7 CALM 0 0 1017.9 - 0.2 - - 10 - - - -
05/01:30am 16.5 CALM 0 0 1017.9 - 0.2 - - 10 - - - -
05/01:00am 17.3 CALM 0 0 1018.0 - 0.2 - - 10 - - - -
05/12:30am 17.2 CALM 0 0 1018.1 - 0.2 - - 10 - - - -
05/12:00am 17.1 CALM 0 0 1018.3 - 0.2 - - 10 - - - -
 
Date/Time
EST
Temp

°C
Wind Pressure Rain
since 9am
mm
Weather Cloud Vis
km
Sea
Height
m
Swell
Dir
 
Speed
knots
Gust
knots
hPa Trend Height
m
Period
s
Dir
04/11:30pm 16.6 CALM 0 0 1018.3 - 0.2 - - 10 - - - -
04/11:00pm 17.1 CALM 0 0 1018.4 - 0.2 - - 10 - - - -
04/10:46pm 16.9 CALM 0 0 1018.3 - 0.2 - - 10 - - - -
04/10:30pm 16.6 CALM 0 0 1018.2 - 0.2 - - 3 - - - -
04/10:26pm 16.8 CALM 0 0 1018.2 - 0.2 - - 5 - - - -
04/10:00pm 16.5 CALM 0 0 1018.2 - 0.2 - - 10 - - - -
04/09:30pm 16.9 CALM 0 0 1018.1 - 0.2 - - 10 - - - -
04/09:00pm 17.4 CALM 0 0 1018.1 - 0.2 - - 10 - - - -
04/08:30pm 17.1 CALM 0 0 1017.9 - 0.2 - - 10 - - - -
04/08:00pm 17.6 CALM 0 0 1017.7 - 0.2 - - 10 - - - -
04/07:30pm 18.1 CALM 0 0 1017.5 - 0.2 - - 10 - - - -
04/07:00pm 18.6 CALM 0 0 1017.2 - 0.2 - - 10 - - - -
04/06:30pm 19.4 ESE 4 5 1016.8 - 0.2 - - 10 - - - -
04/06:00pm 21.7 ESE 6 8 1016.3 - 0.2 - - 10 - - - -
04/05:30pm 20.8 ESE 5 6 1015.8 - 0.2 - - 10 - - - -
04/05:00pm 21.8 ESE 6 9 1015.3 - 0.2 - - 10 - - - -
04/04:30pm 22.0 ESE 7 10 1014.9 - 0.2 - Mostly clear 10 - - - -
04/04:00pm 22.5 E 7 10 1014.8 - 0.2 - Mostly clear 10 - - - -
04/03:30pm 23.3 E 8 11 1014.4 - 0.2 - Mostly clear 10 - - - -
04/03:00pm 23.2 E 8 12 1014.2 - 0.2 - Mostly clear 10 - - - -
04/02:30pm 22.6 E 7 8 1014.2 - 0.2 - Cloudy 10 - - - -
04/02:00pm 22.0 W 4 6 1014.3 - 0.2 Showers Mostly clear 10 - - - -
04/01:30pm 22.6 E 10 13 1014.1 - 0.2 Showers Mostly clear 10 - - - -
04/01:00pm 23.7 ENE 7 12 1014.0 - 0.2 Showers Mostly clear 10 - - - -
04/12:30pm 23.9 E 7 10 1014.1 - 0.2 Showers Mostly clear 10 - - - -
04/12:00pm 23.4 SSE 6 9 1014.3 - 0.2 Showers Mostly clear 10 - - - -
04/11:47am 24.1 ESE 5 9 1014.4 - 0.2 - Partly cloudy 10 - - - -
04/11:30am 24.3 N 3 6 1014.6 - 0.2 - Mostly cloudy 10 - - - -
04/11:00am 24.8 SW 6 9 1014.8 - 0.2 - Partly cloudy 10 - - - -
04/10:30am 24.4 WSW 7 10 1015.0 - 0.2 - Partly cloudy 10 - - - -
04/10:00am 24.4 WSW 6 9 1015.0 - 0.2 - Partly cloudy 10 - - - -
04/09:30am 24.2 WSW 7 10 1015.0 - 0.0 - Partly cloudy 10 - - - -
04/09:00am 24.2 SW 7 9 1014.9 - 0.0 - Partly cloudy 10 - - - -
04/08:30am 24.0 SW 7 10 1014.7 - 0.6 - Mostly clear 10 - - - -
04/08:00am 23.6 SW 6 9 1014.5 - 0.6 - Mostly clear 10 - - - -
04/07:30am 23.3 WSW 8 11 1014.3 - 0.6 - Partly cloudy 10 - - - -
04/07:00am 22.7 WSW 9 14 1013.8 - 0.6 - Partly cloudy 10 - - - -
04/06:30am 22.7 WSW 12 16 1013.5 - 0.6 - Partly cloudy 10 - - - -

Other Formats:

Comma delimited format used in spreadsheet applications
http://www.bom.gov.au/fwo/IDN60701/IDN60701.94995.axf

JavaScript Object Notation format (JSON) in row-major order
http://www.bom.gov.au/fwo/IDN60701/IDN60701.94995.json